createdAt,value
2023-03-26T00:03:53.493Z,8.72
2023-03-26T00:06:40.308Z,8.67
2023-03-26T00:09:25.876Z,8.70
2023-03-26T00:12:11.175Z,8.75
2023-03-26T00:14:56.940Z,8.79
2023-03-26T00:17:42.410Z,8.81
2023-03-26T00:20:29.709Z,8.83
2023-03-26T00:23:15.432Z,8.87
2023-03-26T00:26:01.485Z,8.87
2023-03-26T00:28:47.210Z,8.86
2023-03-26T00:31:33.040Z,8.86
2023-03-26T00:34:18.639Z,8.85
2023-03-26T00:37:04.569Z,8.89
2023-03-26T00:39:49.925Z,8.90
2023-03-26T00:42:35.621Z,8.90
2023-03-26T00:45:21.893Z,8.88
2023-03-26T00:48:07.612Z,8.89
2023-03-26T00:50:52.650Z,8.89
2023-03-26T00:53:39.028Z,8.84
2023-03-26T00:56:25.491Z,8.85
2023-03-26T00:59:11.101Z,8.85
2023-03-26T01:01:58.248Z,8.88
2023-03-26T01:04:55.551Z,8.87
2023-03-26T01:07:42.656Z,8.89
2023-03-26T01:10:28.109Z,8.90
2023-03-26T01:13:13.450Z,8.88
2023-03-26T01:16:02.024Z,8.84
2023-03-26T01:18:48.734Z,8.82
2023-03-26T01:21:34.390Z,8.81
2023-03-26T01:24:19.840Z,8.74
2023-03-26T01:27:11.892Z,8.70
2023-03-26T01:30:01.396Z,8.63
2023-03-26T01:33:02.303Z,8.60
2023-03-26T01:35:58.842Z,8.54
2023-03-26T01:39:18.608Z,8.49
2023-03-26T01:42:13.500Z,8.38
2023-03-26T01:45:11.397Z,8.18
2023-03-26T01:47:57.394Z,7.89
2023-03-26T01:50:42.760Z,7.78
2023-03-26T01:53:29.058Z,7.63
2023-03-26T01:56:35.833Z,7.60
2023-03-26T01:59:39.178Z,7.57
2023-03-26T02:02:38.665Z,7.57
2023-03-26T02:05:31.716Z,7.58
2023-03-26T02:08:25.872Z,7.64
2023-03-26T02:11:14.304Z,7.64
2023-03-26T02:13:59.801Z,7.67
2023-03-26T02:16:46.847Z,7.68
2023-03-26T02:19:32.249Z,7.70
2023-03-26T02:22:17.847Z,7.78
2023-03-26T02:25:04.866Z,7.78
2023-03-26T02:27:52.410Z,7.73
2023-03-26T02:30:39.784Z,7.67
2023-03-26T02:33:25.440Z,7.63
2023-03-26T02:36:14.004Z,7.58
2023-03-26T02:39:01.745Z,7.61
2023-03-26T02:41:50.736Z,7.54
2023-03-26T02:44:38.689Z,7.56
2023-03-26T02:47:45.987Z,7.56
2023-03-26T02:50:54.288Z,7.60
2023-03-26T02:54:03.289Z,7.64
2023-03-26T02:56:54.699Z,7.69
2023-03-26T02:59:52.710Z,7.73
2023-03-26T03:02:57.855Z,7.77
2023-03-26T03:05:57.148Z,7.84
2023-03-26T03:08:49.946Z,7.83
2023-03-26T03:11:35.914Z,7.83
2023-03-26T03:14:21.467Z,7.83
2023-03-26T03:17:06.548Z,7.83
2023-03-26T03:19:52.712Z,7.86
2023-03-26T03:22:38.301Z,7.85
2023-03-26T03:25:23.361Z,7.85
2023-03-26T03:28:09.436Z,7.86
2023-03-26T03:30:57.422Z,7.87
2023-03-26T03:33:50.600Z,7.92
2023-03-26T03:36:38.353Z,7.92
2023-03-26T03:39:32.016Z,7.96
2023-03-26T03:42:17.475Z,7.97
2023-03-26T03:45:07.064Z,7.97
2023-03-26T03:48:14.651Z,7.98
2023-03-26T03:51:05.108Z,8.01
2023-03-26T03:54:04.326Z,8.02
2023-03-26T03:57:09.579Z,8.00
2023-03-26T03:59:58.987Z,7.99
2023-03-26T04:02:48.999Z,7.97
2023-03-26T04:05:34.959Z,7.93
2023-03-26T04:08:23.530Z,7.90
2023-03-26T04:11:12.055Z,7.90
2023-03-26T04:14:30.914Z,7.87
2023-03-26T04:17:23.430Z,7.95
2023-03-26T04:20:15.538Z,7.90
2023-03-26T04:23:04.199Z,7.89
2023-03-26T04:25:54.391Z,7.85
2023-03-26T04:28:55.141Z,7.90
2023-03-26T04:31:47.112Z,7.88
2023-03-26T04:34:34.096Z,7.83
2023-03-26T04:37:39.396Z,7.81
2023-03-26T04:40:39.098Z,7.85
2023-03-26T04:43:47.504Z,7.88
2023-03-26T04:46:43.536Z,7.85
2023-03-26T04:49:36.236Z,7.81
2023-03-26T04:52:22.148Z,7.74
2023-03-26T04:55:42.104Z,7.74
2023-03-26T04:58:35.476Z,7.78
2023-03-26T05:01:21.603Z,7.78
2023-03-26T05:04:07.102Z,7.79
2023-03-26T05:06:53.405Z,7.78
2023-03-26T05:09:45.279Z,7.82
2023-03-26T05:12:35.032Z,7.88
2023-03-26T05:15:28.713Z,7.92
2023-03-26T05:18:14.118Z,7.96
2023-03-26T05:21:02.468Z,8.01
2023-03-26T05:23:48.385Z,8.05
2023-03-26T05:26:38.116Z,8.11
2023-03-26T05:29:24.192Z,8.14
2023-03-26T05:32:12.001Z,8.20
2023-03-26T05:34:57.894Z,8.24
2023-03-26T05:37:45.421Z,8.25
2023-03-26T05:40:30.830Z,8.23
2023-03-26T05:43:18.726Z,8.23
2023-03-26T05:46:20.279Z,8.26
2023-03-26T05:49:05.674Z,8.24
2023-03-26T05:51:55.427Z,8.19
2023-03-26T05:55:10.380Z,8.24
2023-03-26T05:58:14.543Z,8.23
2023-03-26T06:01:19.622Z,8.24
2023-03-26T06:04:23.790Z,8.28
2023-03-26T06:07:29.458Z,8.38
2023-03-26T06:10:26.709Z,8.43
2023-03-26T06:13:13.535Z,8.45
2023-03-26T06:15:58.946Z,8.42
2023-03-26T06:18:57.294Z,8.34
2023-03-26T06:21:51.438Z,8.34
2023-03-26T06:24:48.326Z,8.38
2023-03-26T06:27:58.558Z,8.39
2023-03-26T06:31:04.417Z,8.43
2023-03-26T06:33:53.851Z,8.43
2023-03-26T06:36:39.411Z,8.40
2023-03-26T06:39:24.529Z,8.46
2023-03-26T06:43:08.900Z,8.46
2023-03-26T06:46:05.041Z,8.46
2023-03-26T06:48:56.304Z,8.45
2023-03-26T06:52:15.025Z,8.41
2023-03-26T06:55:18.631Z,8.53
2023-03-26T06:58:19.747Z,8.69
2023-03-26T07:01:23.655Z,8.78
2023-03-26T07:04:27.842Z,8.88
2023-03-26T07:07:32.266Z,8.89
2023-03-26T07:10:36.096Z,8.97
2023-03-26T07:13:30.083Z,9.01
2023-03-26T07:16:35.434Z,9.01
2023-03-26T07:19:36.375Z,8.96
2023-03-26T07:22:24.417Z,9.00
2023-03-26T07:25:25.385Z,9.22
2023-03-26T07:29:06.865Z,9.29
2023-03-26T07:32:40.494Z,9.32
2023-03-26T07:35:49.757Z,9.29
2023-03-26T07:39:13.423Z,9.17
2023-03-26T07:42:34.189Z,9.05
2023-03-26T07:45:54.827Z,9.12
2023-03-26T07:48:47.848Z,9.08
2023-03-26T07:51:52.384Z,9.09
2023-03-26T07:54:56.743Z,9.22
2023-03-26T07:58:25.525Z,9.19
2023-03-26T08:01:39.371Z,9.22
2023-03-26T08:04:51.534Z,9.36
2023-03-26T08:08:18.450Z,9.33
2023-03-26T08:11:44.024Z,9.34
2023-03-26T08:14:33.292Z,9.43
2023-03-26T08:17:38.515Z,9.38
2023-03-26T08:20:41.399Z,9.38
2023-03-26T08:23:51.037Z,9.35
2023-03-26T08:27:05.225Z,9.43
2023-03-26T08:30:14.780Z,9.52
2023-03-26T08:33:12.947Z,9.63
2023-03-26T08:35:58.171Z,9.60
2023-03-26T08:38:45.130Z,9.64
2023-03-26T08:42:19.618Z,9.78
2023-03-26T08:45:33.127Z,9.95
2023-03-26T08:48:59.458Z,10.08
2023-03-26T08:52:18.095Z,10.24
2023-03-26T08:55:19.162Z,10.35
2023-03-26T08:58:08.777Z,10.47
2023-03-26T09:01:00.151Z,10.54
2023-03-26T09:04:23.947Z,10.50
2023-03-26T09:07:27.928Z,10.39
2023-03-26T09:10:38.002Z,10.41
2023-03-26T09:13:26.250Z,10.43
2023-03-26T09:16:38.690Z,10.29
2023-03-26T09:19:56.630Z,10.22
2023-03-26T09:22:59.503Z,10.27
2023-03-26T09:25:56.555Z,10.26
2023-03-26T09:29:00.800Z,10.20
2023-03-26T09:32:07.448Z,10.22
2023-03-26T09:35:31.503Z,10.27
2023-03-26T09:38:25.817Z,10.25
2023-03-26T09:41:37.487Z,10.19
2023-03-26T09:44:32.553Z,9.87
2023-03-26T09:47:23.504Z,9.47
2023-03-26T09:50:23.891Z,9.20
2023-03-26T09:53:40.310Z,8.78
2023-03-26T09:56:57.908Z,8.59
2023-03-26T10:00:21.249Z,8.57
2023-03-26T10:03:18.741Z,8.60
2023-03-26T10:06:29.426Z,8.81
2023-03-26T10:09:34.046Z,8.90
2023-03-26T10:12:39.436Z,9.06
2023-03-26T10:15:31.116Z,9.02
2023-03-26T10:18:42.219Z,9.01
2023-03-26T10:21:56.659Z,9.00
2023-03-26T10:25:01.312Z,9.10
2023-03-26T10:28:11.003Z,9.06
2023-03-26T10:31:00.285Z,9.09
2023-03-26T10:34:28.434Z,9.07
2023-03-26T10:37:52.559Z,9.07
2023-03-26T10:40:51.375Z,9.20
2023-03-26T10:43:54.588Z,9.23
2023-03-26T10:47:24.828Z,9.21
2023-03-26T10:50:35.418Z,9.27
2023-03-26T10:53:23.676Z,9.43
2023-03-26T10:56:31.248Z,9.27
2023-03-26T10:59:20.595Z,9.36
2023-03-26T11:02:30.375Z,9.47
2023-03-26T11:05:44.787Z,9.56
2023-03-26T11:08:41.355Z,9.73
2023-03-26T11:11:46.234Z,10.01
2023-03-26T11:14:58.136Z,10.13
2023-03-26T11:18:29.723Z,10.36
2023-03-26T11:21:46.458Z,10.36
2023-03-26T11:24:42.276Z,10.56
2023-03-26T11:27:58.930Z,10.96
2023-03-26T11:30:52.099Z,11.12
2023-03-26T11:33:45.637Z,11.01
2023-03-26T11:36:37.640Z,11.05
2023-03-26T11:39:29.517Z,10.82
2023-03-26T11:42:22.720Z,10.63
2023-03-26T11:45:16.910Z,10.62
2023-03-26T11:48:14.675Z,10.73
2023-03-26T11:51:08.576Z,10.81
2023-03-26T11:53:54.497Z,11.24
2023-03-26T11:57:05.411Z,11.08
2023-03-26T11:59:58.973Z,10.84
2023-03-26T12:02:46.673Z,10.62
2023-03-26T12:05:36.572Z,10.64
2023-03-26T12:08:33.636Z,10.83
2023-03-26T12:11:28.744Z,10.39
2023-03-26T12:14:21.369Z,10.46
2023-03-26T12:17:14.991Z,10.63
2023-03-26T12:20:01.028Z,10.67
2023-03-26T12:22:47.826Z,10.76
2023-03-26T12:25:40.412Z,10.71
2023-03-26T12:28:32.700Z,10.81
2023-03-26T12:31:19.064Z,11.17
2023-03-26T12:34:16.687Z,11.33
2023-03-26T12:37:06.241Z,11.53
2023-03-26T12:40:12.253Z,11.59
2023-03-26T12:44:46.088Z,11.70
2023-03-26T12:47:58.041Z,11.83
2023-03-26T12:49:38.740Z,11.99
2023-03-26T12:52:57.912Z,12.04
2023-03-26T12:56:22.089Z,11.92
2023-03-26T12:59:25.839Z,11.69
2023-03-26T13:02:44.499Z,11.57
2023-03-26T13:05:56.701Z,11.51
2023-03-26T13:09:19.642Z,11.60
2023-03-26T13:12:14.213Z,11.74
2023-03-26T13:15:10.378Z,11.78
2023-03-26T13:18:15.143Z,11.73
2023-03-26T13:21:33.212Z,11.72
2023-03-26T13:24:26.537Z,11.54
2023-03-26T13:27:18.368Z,11.66
2023-03-26T13:30:22.489Z,11.71
2023-03-26T13:33:53.196Z,11.76
2023-03-26T13:37:06.298Z,11.93
2023-03-26T13:40:22.216Z,12.12
2023-03-26T13:43:13.523Z,12.08
2023-03-26T13:46:11.174Z,12.17
2023-03-26T13:49:15.628Z,12.17
2023-03-26T13:52:22.995Z,12.31
2023-03-26T13:55:45.577Z,12.47
2023-03-26T13:58:38.288Z,12.58
2023-03-26T14:02:02.491Z,12.59
2023-03-26T14:04:54.901Z,12.56
2023-03-26T14:07:46.410Z,12.47
2023-03-26T14:10:37.962Z,12.26
2023-03-26T14:14:00.287Z,12.29
2023-03-26T14:16:54.674Z,12.41
2023-03-26T14:19:47.100Z,12.30
2023-03-26T14:22:46.051Z,12.49
2023-03-26T14:26:09.247Z,12.55
2023-03-26T14:29:12.802Z,12.36
2023-03-26T14:32:10.652Z,12.32
2023-03-26T14:35:07.153Z,12.31
2023-03-26T14:38:02.937Z,12.29
2023-03-26T14:40:56.274Z,12.04
2023-03-26T14:44:05.072Z,11.85
2023-03-26T14:47:02.736Z,11.75
2023-03-26T14:49:48.110Z,11.73
2023-03-26T14:52:49.096Z,11.70
2023-03-26T14:55:48.476Z,11.69
2023-03-26T14:58:52.379Z,11.62
2023-03-26T15:02:02.460Z,11.63
2023-03-26T15:04:54.019Z,11.61
2023-03-26T15:07:53.624Z,11.51
2023-03-26T15:10:49.651Z,11.55
2023-03-26T15:13:53.556Z,11.53
2023-03-26T15:16:39.111Z,11.43
2023-03-26T15:19:53.055Z,11.49
2023-03-26T15:23:15.783Z,11.27
2023-03-26T15:27:01.602Z,11.20
2023-03-26T15:30:11.760Z,11.25
2023-03-26T15:33:18.150Z,11.29
2023-03-26T15:36:13.906Z,11.23
2023-03-26T15:39:18.218Z,10.98
2023-03-26T15:42:06.571Z,10.84
2023-03-26T15:45:29.640Z,10.76
2023-03-26T15:48:49.043Z,10.72
2023-03-26T15:51:50.835Z,10.65
2023-03-26T15:54:47.782Z,10.61
2023-03-26T15:58:01.346Z,10.53
2023-03-26T16:01:02.601Z,10.44
2023-03-26T16:04:05.168Z,10.33
2023-03-26T16:06:59.086Z,10.35
2023-03-26T16:10:15.907Z,10.44
2023-03-26T16:13:19.447Z,10.55
2023-03-26T16:16:04.780Z,10.46
2023-03-26T16:19:18.065Z,10.44
2023-03-26T16:22:07.534Z,10.40
2023-03-26T16:25:27.867Z,10.43
2023-03-26T16:28:27.549Z,10.44
2023-03-26T16:31:22.871Z,10.40
2023-03-26T16:34:24.862Z,10.39
2023-03-26T16:37:33.657Z,10.30
2023-03-26T16:40:22.462Z,10.29
2023-03-26T16:43:35.798Z,10.30
2023-03-26T16:46:38.128Z,10.29
2023-03-26T16:50:07.810Z,10.19
2023-03-26T16:53:09.250Z,10.14
2023-03-26T16:56:15.838Z,10.03
2023-03-26T16:59:09.172Z,9.92
2023-03-26T17:02:06.811Z,9.81
2023-03-26T17:05:05.430Z,9.69
2023-03-26T17:08:35.552Z,9.62
2023-03-26T17:11:28.949Z,9.61
2023-03-26T17:14:51.920Z,9.55
2023-03-26T17:17:40.731Z,9.51
2023-03-26T17:20:42.900Z,9.51
2023-03-26T17:23:47.245Z,9.51
2023-03-26T17:26:46.741Z,9.49
2023-03-26T17:29:57.845Z,9.52
2023-03-26T17:32:58.782Z,9.52
2023-03-26T17:35:46.373Z,9.51
2023-03-26T17:38:40.871Z,9.54
2023-03-26T17:41:52.741Z,9.52
2023-03-26T17:44:44.109Z,9.47
2023-03-26T17:47:39.749Z,9.42
2023-03-26T17:50:50.757Z,9.33
2023-03-26T17:53:37.065Z,9.27
2023-03-26T17:56:29.255Z,9.20
2023-03-26T17:59:23.274Z,9.16
2023-03-26T18:02:16.259Z,9.15
2023-03-26T18:05:03.347Z,9.10
2023-03-26T18:08:13.652Z,9.14
2023-03-26T18:11:41.685Z,9.14
2023-03-26T18:14:55.727Z,9.17
2023-03-26T18:17:46.954Z,9.17
2023-03-26T18:20:37.061Z,9.16
2023-03-26T18:23:28.742Z,9.17
2023-03-26T18:26:18.944Z,9.14
2023-03-26T18:29:16.574Z,9.08
2023-03-26T18:32:14.082Z,9.06
2023-03-26T18:35:13.238Z,9.06
2023-03-26T18:37:59.842Z,9.05
2023-03-26T18:40:46.330Z,8.99
2023-03-26T18:43:35.605Z,8.99
2023-03-26T18:46:29.377Z,8.94
2023-03-26T18:49:16.909Z,8.91
2023-03-26T18:52:02.543Z,8.82
2023-03-26T18:54:50.961Z,8.76
2023-03-26T18:57:36.502Z,8.64
2023-03-26T19:00:25.435Z,8.51
2023-03-26T19:03:13.331Z,8.35
2023-03-26T19:05:59.230Z,8.28
2023-03-26T19:08:46.628Z,8.22
2023-03-26T19:11:33.631Z,8.12
2023-03-26T19:14:20.384Z,8.07
2023-03-26T19:17:07.044Z,8.00
2023-03-26T19:19:55.244Z,7.97
2023-03-26T19:22:44.714Z,7.90
2023-03-26T19:25:36.014Z,7.89
2023-03-26T19:28:53.283Z,7.84
2023-03-26T19:31:39.969Z,7.77
2023-03-26T19:34:31.579Z,7.74
2023-03-26T19:37:25.671Z,7.71
2023-03-26T19:40:20.019Z,7.69
2023-03-26T19:43:05.609Z,7.69
2023-03-26T19:45:59.847Z,7.72
2023-03-26T19:48:49.065Z,7.67
2023-03-26T19:51:36.323Z,7.63
2023-03-26T19:54:21.386Z,7.59
2023-03-26T19:57:09.594Z,7.55
2023-03-26T19:59:55.727Z,7.54
2023-03-26T20:02:42.409Z,7.51
2023-03-26T20:05:32.649Z,7.43
2023-03-26T20:08:19.495Z,7.38
2023-03-26T20:11:05.396Z,7.29
2023-03-26T20:13:52.203Z,7.26
2023-03-26T20:16:38.276Z,7.12
2023-03-26T20:19:26.825Z,7.06
2023-03-26T20:22:14.665Z,7.14
2023-03-26T20:25:00.042Z,7.16
2023-03-26T20:27:46.737Z,7.18
2023-03-26T20:30:37.434Z,7.11
2023-03-26T20:33:26.595Z,7.11
2023-03-26T20:36:13.434Z,6.91
2023-03-26T20:38:58.784Z,6.89
2023-03-26T20:41:47.104Z,6.81
2023-03-26T20:44:32.530Z,6.77
2023-03-26T20:47:18.079Z,6.73
2023-03-26T20:50:03.614Z,6.70
2023-03-26T20:52:50.265Z,6.68
2023-03-26T20:55:35.684Z,6.61
2023-03-26T20:58:31.497Z,6.49
2023-03-26T21:01:17.574Z,6.43
2023-03-26T21:04:04.291Z,6.43
2023-03-26T21:06:50.120Z,6.37
2023-03-26T21:09:36.412Z,6.30
2023-03-26T21:12:39.344Z,6.27
2023-03-26T21:15:25.484Z,6.28
2023-03-26T21:18:11.426Z,6.30
2023-03-26T21:21:17.960Z,6.29
2023-03-26T21:24:13.056Z,6.23
2023-03-26T21:27:28.867Z,6.15
2023-03-26T21:30:16.329Z,6.15
2023-03-26T21:33:02.276Z,6.14
2023-03-26T21:35:53.334Z,6.11
2023-03-26T21:38:39.584Z,6.07
2023-03-26T21:41:41.163Z,6.10
2023-03-26T21:44:27.141Z,6.09
2023-03-26T21:47:13.037Z,6.02
2023-03-26T21:49:58.578Z,5.94
2023-03-26T21:52:50.823Z,5.94
2023-03-26T21:55:51.962Z,6.00
2023-03-26T21:58:55.988Z,5.96
2023-03-26T22:01:56.913Z,5.84
2023-03-26T22:04:49.345Z,5.79
2023-03-26T22:07:43.721Z,5.76
2023-03-26T22:10:30.116Z,5.72
2023-03-26T22:13:15.378Z,5.71
2023-03-26T22:16:00.989Z,5.70
2023-03-26T22:18:46.547Z,5.70
2023-03-26T22:21:33.656Z,5.63
2023-03-26T22:24:19.655Z,5.51
2023-03-26T22:27:04.944Z,5.39
2023-03-26T22:29:50.244Z,5.31
2023-03-26T22:32:35.607Z,5.29
2023-03-26T22:35:21.673Z,5.26
2023-03-26T22:38:07.478Z,5.32
2023-03-26T22:40:57.533Z,5.30
2023-03-26T22:43:44.112Z,5.27
2023-03-26T22:46:30.899Z,5.18
2023-03-26T22:49:16.521Z,5.24
2023-03-26T22:52:01.965Z,5.31
2023-03-26T22:54:47.156Z,5.20
2023-03-26T22:57:32.523Z,5.19
2023-03-26T23:00:19.874Z,5.13
2023-03-26T23:03:05.574Z,5.14
2023-03-26T23:05:59.214Z,5.06
2023-03-26T23:08:44.674Z,5.05
2023-03-26T23:11:31.033Z,5.03
2023-03-26T23:14:16.575Z,5.02
2023-03-26T23:17:01.915Z,4.98
2023-03-26T23:19:47.511Z,4.95
2023-03-26T23:22:35.169Z,4.96
2023-03-26T23:25:20.640Z,4.94
2023-03-26T23:28:05.831Z,4.93
2023-03-26T23:30:52.572Z,4.98
2023-03-26T23:33:39.279Z,4.91
2023-03-26T23:36:24.800Z,4.92
2023-03-26T23:39:10.854Z,4.89
2023-03-26T23:41:56.046Z,4.77
2023-03-26T23:44:41.324Z,4.81
2023-03-26T23:47:27.021Z,4.76
2023-03-26T23:50:12.813Z,4.68
2023-03-26T23:52:58.688Z,4.63
2023-03-26T23:55:48.030Z,4.61
2023-03-26T23:58:33.120Z,4.62
